Moffatt, Texas
Current Conditions -  °F | °C
As of 10:15 AM on Monday 24 Nov 2014 (Local Time) from KTPL Reporting Station
Clear Clear  
Wind Chill: 57°   Ceiling: Unl
Heat Index: 57°   Visibility: 10mi
Dew Point: 30°   Wind: 13mph
Humidity: 36%   Direction: 350°N
Pressure: 30.1"   Gusts: 17mph
Location:  31.0795°N, 97.3287°W
Report Text: KTPL 241615Z AUTO 35011G15KT 10SM CLR 14/M01 A3010 RMK AO1
Loading
Personal Weather Stations






























Interactive Weather Map New forecast layout! Learn more

10-Day Weather Forecast

Advertisements
Track Severe Weather on mobile